createdAt,value
2023-02-21T00:02:06.267Z,2.80
2023-02-21T00:05:07.980Z,4.00
2023-02-21T00:08:08.636Z,4.07
2023-02-21T00:11:09.150Z,3.55
2023-02-21T00:14:09.394Z,2.92
2023-02-21T00:17:09.910Z,5.38
2023-02-21T00:20:11.445Z,2.40
2023-02-21T00:23:11.767Z,5.53
2023-02-21T00:26:12.217Z,2.60
2023-02-21T00:29:12.554Z,2.30
2023-02-21T00:32:13.374Z,3.53
2023-02-21T00:35:15.166Z,3.05
2023-02-21T00:38:15.469Z,3.65
2023-02-21T00:41:16.262Z,3.08
2023-02-21T00:44:16.638Z,5.32
2023-02-21T00:47:16.852Z,6.15
2023-02-21T00:50:18.492Z,4.68
2023-02-21T00:53:18.633Z,4.22
2023-02-21T00:56:19.150Z,3.33
2023-02-21T00:59:19.355Z,2.47
2023-02-21T01:02:19.689Z,4.00
2023-02-21T01:05:22.018Z,3.88
2023-02-21T01:08:22.752Z,3.53
2023-02-21T01:11:23.130Z,4.68
2023-02-21T01:14:24.734Z,3.95
2023-02-21T01:17:26.189Z,2.58
2023-02-21T01:20:28.749Z,2.70
2023-02-21T01:23:29.406Z,4.68
2023-02-21T01:26:29.487Z,3.45
2023-02-21T01:29:31.695Z,2.38
2023-02-21T01:32:33.901Z,4.25
2023-02-21T01:35:35.564Z,3.53
2023-02-21T01:38:35.719Z,4.90
2023-02-21T01:41:36.146Z,3.35
2023-02-21T01:44:54.470Z,2.50
2023-02-21T01:47:54.805Z,4.25
2023-02-21T01:50:56.417Z,3.65
2023-02-21T01:53:56.691Z,4.03
2023-02-21T01:56:58.335Z,5.63
2023-02-21T01:59:59.621Z,3.38
2023-02-21T02:03:08.842Z,4.30
2023-02-21T02:06:14.404Z,3.97
2023-02-21T02:09:14.482Z,3.92
2023-02-21T02:12:25.402Z,4.10
2023-02-21T02:15:33.841Z,2.65
2023-02-21T02:18:30.578Z,2.92
2023-02-21T02:22:02.217Z,3.25
2023-02-21T02:25:01.506Z,3.30
2023-02-21T02:28:18.762Z,4.25
2023-02-21T02:31:25.400Z,5.35
2023-02-21T02:34:42.347Z,2.35
2023-02-21T02:37:32.858Z,2.38
2023-02-21T02:40:23.798Z,2.40
2023-02-21T02:43:17.041Z,2.60
2023-02-21T02:46:06.429Z,2.95
2023-02-21T02:48:55.106Z,3.85
2023-02-21T02:51:39.575Z,4.93
2023-02-21T02:54:25.032Z,5.68
2023-02-21T02:57:13.019Z,6.43
2023-02-21T02:59:56.466Z,5.65
2023-02-21T03:02:51.533Z,7.22
2023-02-21T03:05:42.660Z,4.88
2023-02-21T03:08:37.849Z,3.92
2023-02-21T03:11:24.925Z,5.07
2023-02-21T03:14:14.471Z,4.82
2023-02-21T03:17:02.775Z,3.38
2023-02-21T03:19:48.970Z,6.60
2023-02-21T03:22:33.258Z,4.85
2023-02-21T03:28:03.071Z,4.25
2023-02-21T03:30:56.411Z,5.13
2023-02-21T03:33:41.338Z,3.35
2023-02-21T03:36:25.225Z,4.60
2023-02-21T03:39:09.018Z,2.05
2023-02-21T03:41:53.543Z,4.70
2023-02-21T03:44:36.469Z,1.75
2023-02-21T03:47:19.463Z,2.95
2023-02-21T03:50:02.424Z,4.63
2023-02-21T03:52:45.405Z,6.80
2023-02-21T03:55:28.877Z,4.00
2023-02-21T03:58:14.746Z,4.05
2023-02-21T04:00:59.034Z,5.05
2023-02-21T04:03:41.855Z,3.95
2023-02-21T04:06:24.738Z,4.22
2023-02-21T04:09:07.575Z,5.32
2023-02-21T04:11:52.431Z,6.85
2023-02-21T04:14:36.697Z,4.20
2023-02-21T04:20:03.787Z,4.55
2023-02-21T04:23:02.701Z,4.75
2023-02-21T04:25:46.461Z,4.60
2023-02-21T04:28:34.177Z,3.55
2023-02-21T04:31:19.776Z,4.38
2023-02-21T04:34:11.813Z,5.72
2023-02-21T04:36:58.140Z,5.45
2023-02-21T04:39:42.038Z,5.45
2023-02-21T04:42:24.916Z,9.18
2023-02-21T04:45:09.220Z,4.32
2023-02-21T04:47:54.079Z,5.80
2023-02-21T04:50:36.895Z,4.88
2023-02-21T04:53:19.867Z,7.18
2023-02-21T04:56:02.625Z,10.05
2023-02-21T04:58:46.150Z,5.63
2023-02-21T05:01:31.295Z,5.47
2023-02-21T05:04:15.696Z,6.47
2023-02-21T05:06:59.857Z,7.20
2023-02-21T05:09:42.644Z,9.13
2023-02-21T05:12:25.469Z,8.25
2023-02-21T05:15:09.467Z,7.70
2023-02-21T05:17:52.296Z,11.07
2023-02-21T05:20:36.380Z,5.18
2023-02-21T05:23:34.019Z,9.88
2023-02-21T05:26:16.996Z,7.78
2023-02-21T05:29:00.031Z,5.63
2023-02-21T05:31:42.796Z,7.78
2023-02-21T05:34:25.654Z,8.35
2023-02-21T05:37:09.768Z,5.35
2023-02-21T05:39:52.901Z,6.38
2023-02-21T05:42:35.698Z,4.03
2023-02-21T05:45:19.697Z,6.53
2023-02-21T05:48:02.596Z,5.35
2023-02-21T05:50:45.832Z,5.97
2023-02-21T05:53:29.984Z,5.50
2023-02-21T05:56:13.732Z,7.00
2023-02-21T05:58:56.529Z,7.00
2023-02-21T06:01:39.889Z,7.80
2023-02-21T06:04:22.685Z,8.88
2023-02-21T06:07:05.455Z,7.65
2023-02-21T06:09:49.691Z,8.02
2023-02-21T06:12:32.720Z,12.57
2023-02-21T06:15:15.522Z,11.45
2023-02-21T06:17:58.297Z,11.45
2023-02-21T06:20:41.159Z,9.10
2023-02-21T06:23:23.928Z,6.95
2023-02-21T06:26:08.139Z,9.65
2023-02-21T06:28:51.350Z,6.72
2023-02-21T06:31:36.345Z,9.52
2023-02-21T06:34:19.207Z,7.07
2023-02-21T06:37:02.120Z,7.68
2023-02-21T06:39:44.956Z,11.23
2023-02-21T06:42:30.036Z,9.75
2023-02-21T06:45:12.953Z,9.02
2023-02-21T06:47:55.703Z,13.52
2023-02-21T06:50:38.477Z,10.65
2023-02-21T06:53:21.255Z,9.02
2023-02-21T06:56:05.644Z,8.65
2023-02-21T06:58:49.768Z,8.55
2023-02-21T07:01:32.765Z,7.13
2023-02-21T07:04:15.607Z,8.68
2023-02-21T07:06:58.409Z,9.20
2023-02-21T07:09:41.236Z,9.18
2023-02-21T07:12:23.989Z,8.52
2023-02-21T07:15:09.077Z,8.80
2023-02-21T07:17:51.896Z,6.55
2023-02-21T07:20:35.375Z,8.00
2023-02-21T07:23:18.360Z,7.38
2023-02-21T07:26:01.174Z,8.25
2023-02-21T07:28:44.169Z,9.07
2023-02-21T07:31:28.397Z,8.98
2023-02-21T07:34:12.221Z,6.63
2023-02-21T07:36:55.068Z,7.10
2023-02-21T07:39:38.192Z,6.88
2023-02-21T07:42:21.069Z,8.98
2023-02-21T07:45:04.123Z,6.45
2023-02-21T07:47:50.959Z,7.78
2023-02-21T07:50:33.790Z,9.32
2023-02-21T07:53:17.810Z,10.32
2023-02-21T07:56:00.781Z,8.80
2023-02-21T07:58:43.588Z,6.72
2023-02-21T08:01:27.801Z,8.02
2023-02-21T08:04:13.243Z,10.25
2023-02-21T08:07:00.642Z,10.98
2023-02-21T08:09:43.435Z,6.55
2023-02-21T08:12:26.247Z,6.10
2023-02-21T08:15:09.875Z,6.85
2023-02-21T08:17:53.032Z,7.93
2023-02-21T08:20:37.175Z,9.23
2023-02-21T08:23:20.161Z,6.43
2023-02-21T08:26:04.530Z,8.15
2023-02-21T08:28:47.334Z,7.03
2023-02-21T08:31:30.244Z,8.30
2023-02-21T08:34:13.795Z,9.02
2023-02-21T08:36:58.235Z,15.48
2023-02-21T08:39:41.084Z,6.97
2023-02-21T08:42:23.910Z,10.93
2023-02-21T08:45:07.458Z,11.20
2023-02-21T08:47:51.447Z,20.58
2023-02-21T08:50:34.554Z,15.73
2023-02-21T08:53:18.919Z,18.80
2023-02-21T08:56:01.751Z,23.83
2023-02-21T08:58:44.547Z,24.42
2023-02-21T09:01:33.289Z,12.68
2023-02-21T09:04:16.105Z,17.95
2023-02-21T09:06:58.911Z,26.40
2023-02-21T09:09:43.119Z,14.30
2023-02-21T09:12:25.929Z,10.68
2023-02-21T09:15:09.506Z,7.32
2023-02-21T09:17:54.551Z,8.05
2023-02-21T09:20:41.609Z,10.10
2023-02-21T09:23:25.386Z,6.80
2023-02-21T09:26:09.564Z,9.27
2023-02-21T09:28:53.470Z,8.18
2023-02-21T09:31:36.343Z,8.15
2023-02-21T09:34:19.306Z,10.15
2023-02-21T09:37:05.911Z,7.60
2023-02-21T09:39:48.734Z,7.30
2023-02-21T09:42:33.555Z,7.32
2023-02-21T09:45:17.285Z,7.20
2023-02-21T09:48:03.946Z,10.18
2023-02-21T09:50:50.043Z,5.20
2023-02-21T09:53:35.922Z,6.43
2023-02-21T09:56:27.914Z,6.07
2023-02-21T09:59:14.085Z,5.57
2023-02-21T10:02:18.781Z,5.45
2023-02-21T10:05:11.150Z,4.30
2023-02-21T10:08:02.463Z,5.05
2023-02-21T10:10:47.938Z,4.50
2023-02-21T10:13:40.568Z,7.47
2023-02-21T10:16:29.860Z,7.20
2023-02-21T10:19:19.698Z,3.75
2023-02-21T10:22:12.052Z,5.47
2023-02-21T10:24:55.294Z,35.90
2023-02-21T10:27:38.125Z,30.15
2023-02-21T10:30:29.207Z,12.13
2023-02-21T10:33:13.816Z,8.43
2023-02-21T10:35:56.755Z,6.50
2023-02-21T10:38:42.103Z,5.10
2023-02-21T10:41:31.135Z,5.70
2023-02-21T10:44:18.940Z,4.55
2023-02-21T10:47:05.517Z,4.85
2023-02-21T10:49:55.194Z,6.18
2023-02-21T10:52:39.485Z,6.15
2023-02-21T10:55:32.644Z,5.03
2023-02-21T10:58:28.677Z,4.75
2023-02-21T11:01:15.963Z,6.78
2023-02-21T11:04:02.102Z,6.65
2023-02-21T11:06:48.674Z,5.30
2023-02-21T11:09:36.645Z,4.75
2023-02-21T11:12:24.332Z,6.28
2023-02-21T11:15:18.486Z,4.30
2023-02-21T11:18:07.714Z,5.07
2023-02-21T11:20:50.508Z,5.40
2023-02-21T11:23:34.698Z,5.63
2023-02-21T11:26:17.645Z,5.55
2023-02-21T11:29:11.552Z,4.63
2023-02-21T11:31:55.121Z,5.68
2023-02-21T11:34:38.008Z,6.85
2023-02-21T11:37:20.841Z,5.05
2023-02-21T11:40:08.680Z,6.75
2023-02-21T11:42:51.830Z,6.90
2023-02-21T11:45:37.901Z,5.30
2023-02-21T11:48:31.318Z,4.35
2023-02-21T11:51:23.806Z,6.55
2023-02-21T11:54:07.707Z,7.32
2023-02-21T11:56:56.260Z,11.00
2023-02-21T11:59:47.566Z,8.05
2023-02-21T12:03:08.725Z,8.10
2023-02-21T12:05:58.830Z,7.30
2023-02-21T12:08:48.787Z,8.23
2023-02-21T12:12:02.249Z,8.95
2023-02-21T12:14:57.551Z,5.72
2023-02-21T12:17:53.163Z,5.57
2023-02-21T12:21:02.147Z,7.40
2023-02-21T12:23:55.641Z,6.88
2023-02-21T12:26:52.645Z,4.28
2023-02-21T12:29:53.741Z,9.90
2023-02-21T12:32:50.077Z,5.78
2023-02-21T12:36:02.633Z,7.68
2023-02-21T12:38:57.121Z,5.75
2023-02-21T12:41:50.905Z,3.65
2023-02-21T12:44:43.251Z,6.57
2023-02-21T12:47:33.580Z,5.75
2023-02-21T12:50:22.567Z,6.47
2023-02-21T12:53:17.146Z,6.28
2023-02-21T12:56:06.923Z,4.57
2023-02-21T12:58:53.931Z,5.90
2023-02-21T13:01:42.554Z,5.13
2023-02-21T13:04:37.257Z,4.28
2023-02-21T13:07:26.414Z,4.70
2023-02-21T13:10:18.013Z,5.15
2023-02-21T13:13:05.554Z,4.00
2023-02-21T13:15:50.267Z,3.83
2023-02-21T13:21:31.251Z,3.95
2023-02-21T13:24:42.223Z,3.28
2023-02-21T13:27:57.470Z,3.83
2023-02-21T13:30:46.568Z,3.53
2023-02-21T13:33:38.458Z,3.40
2023-02-21T13:36:27.141Z,4.05
2023-02-21T13:39:14.828Z,4.35
2023-02-21T13:42:05.538Z,5.20
2023-02-21T13:44:54.203Z,3.85
2023-02-21T13:48:18.687Z,4.00
2023-02-21T13:51:02.005Z,4.75
2023-02-21T13:54:10.178Z,4.15
2023-02-21T13:56:53.265Z,4.40
2023-02-21T13:59:37.562Z,3.00
2023-02-21T14:02:31.150Z,3.65
2023-02-21T14:05:14.120Z,3.38
2023-02-21T14:08:03.291Z,8.98
2023-02-21T14:10:50.610Z,7.22
2023-02-21T14:13:54.405Z,4.90
2023-02-21T14:17:06.056Z,5.35
2023-02-21T14:19:54.758Z,3.13
2023-02-21T14:22:39.787Z,3.78
2023-02-21T14:25:25.579Z,7.72
2023-02-21T14:28:41.470Z,5.47
2023-02-21T14:31:58.966Z,8.70
2023-02-21T14:34:54.203Z,5.95
2023-02-21T14:37:40.026Z,5.97
2023-02-21T14:40:32.789Z,4.03
2023-02-21T14:43:43.851Z,4.65
2023-02-21T14:46:54.913Z,8.00
2023-02-21T14:50:06.216Z,6.40
2023-02-21T14:53:19.475Z,5.35
2023-02-21T14:56:22.197Z,5.43
2023-02-21T14:59:52.719Z,6.20
2023-02-21T15:02:43.556Z,6.75
2023-02-21T15:05:31.488Z,7.97
2023-02-21T15:08:18.296Z,13.23
2023-02-21T15:11:05.615Z,12.15
2023-02-21T15:13:48.513Z,6.45
2023-02-21T15:16:33.087Z,6.90
2023-02-21T15:19:31.845Z,4.80
2023-02-21T15:22:25.049Z,4.13
2023-02-21T15:25:25.145Z,3.83
2023-02-21T15:28:21.970Z,3.72
2023-02-21T15:31:07.994Z,3.55
2023-02-21T15:33:53.493Z,4.00
2023-02-21T15:36:36.401Z,4.18
2023-02-21T15:39:25.417Z,3.28
2023-02-21T15:42:11.683Z,4.97
2023-02-21T15:45:00.621Z,3.75
2023-02-21T15:47:44.495Z,3.53
2023-02-21T15:50:34.135Z,3.47
2023-02-21T15:53:19.673Z,2.83
2023-02-21T15:56:24.553Z,3.40
2023-02-21T15:59:13.530Z,3.70
2023-02-21T16:02:15.113Z,2.92
2023-02-21T16:04:57.957Z,2.97
2023-02-21T16:07:41.174Z,3.88
2023-02-21T16:10:26.043Z,2.80
2023-02-21T16:13:11.027Z,1.92
2023-02-21T16:15:53.985Z,2.40
2023-02-21T16:18:36.932Z,1.77
2023-02-21T16:21:24.155Z,3.72
2023-02-21T16:24:30.183Z,3.47
2023-02-21T16:27:16.182Z,1.70
2023-02-21T16:30:01.426Z,3.35
2023-02-21T16:32:47.499Z,3.58
2023-02-21T16:35:30.960Z,3.42
2023-02-21T16:38:16.580Z,2.85
2023-02-21T16:40:59.356Z,3.38
2023-02-21T16:43:42.253Z,3.60
2023-02-21T16:46:30.095Z,4.82
2023-02-21T16:49:13.591Z,3.22
2023-02-21T16:51:56.410Z,5.05
2023-02-21T16:54:39.204Z,2.22
2023-02-21T16:57:22.108Z,2.85
2023-02-21T17:00:05.836Z,3.42
2023-02-21T17:02:50.939Z,2.25
2023-02-21T17:05:35.990Z,3.10
2023-02-21T17:08:18.920Z,1.45
2023-02-21T17:11:01.787Z,1.83
2023-02-21T17:13:44.618Z,3.95
2023-02-21T17:16:27.496Z,3.97
2023-02-21T17:19:12.891Z,5.57
2023-02-21T17:21:58.127Z,2.10
2023-02-21T17:24:41.027Z,3.03
2023-02-21T17:27:23.861Z,1.95
2023-02-21T17:30:07.854Z,3.47
2023-02-21T17:32:51.173Z,2.63
2023-02-21T17:35:35.331Z,2.97
2023-02-21T17:38:18.165Z,4.35
2023-02-21T17:41:00.938Z,7.07
2023-02-21T17:43:43.896Z,3.95
2023-02-21T17:46:26.899Z,3.30
2023-02-21T17:49:09.836Z,2.42
2023-02-21T17:51:54.898Z,3.15
2023-02-21T17:54:37.842Z,3.53
2023-02-21T17:57:20.783Z,3.03
2023-02-21T18:00:04.321Z,3.53
2023-02-21T18:02:47.760Z,2.20
2023-02-21T18:05:31.531Z,3.13
2023-02-21T18:08:16.729Z,5.27
2023-02-21T18:10:59.514Z,3.85
2023-02-21T18:13:42.573Z,5.18
2023-02-21T18:16:25.659Z,4.95
2023-02-21T18:19:08.537Z,6.75
2023-02-21T18:21:51.329Z,3.30
2023-02-21T18:24:35.459Z,3.92
2023-02-21T18:27:18.255Z,6.13
2023-02-21T18:30:01.144Z,3.92
2023-02-21T18:32:44.029Z,4.32
2023-02-21T18:35:26.858Z,5.97
2023-02-21T18:38:09.704Z,11.63
2023-02-21T18:40:54.644Z,8.18
2023-02-21T18:43:37.579Z,7.90
2023-02-21T18:46:23.826Z,8.70
2023-02-21T18:49:06.838Z,6.55
2023-02-21T18:51:49.771Z,8.07
2023-02-21T18:54:32.779Z,7.40
2023-02-21T18:57:17.643Z,7.40
2023-02-21T19:00:00.583Z,5.60
2023-02-21T19:02:43.380Z,6.57
2023-02-21T19:05:27.148Z,5.18
2023-02-21T19:08:10.019Z,5.57
2023-02-21T19:10:53.945Z,5.20
2023-02-21T19:13:38.197Z,2.88
2023-02-21T19:16:21.121Z,6.20
2023-02-21T19:19:04.187Z,4.10
2023-02-21T19:21:47.211Z,6.40
2023-02-21T19:24:30.206Z,4.65
2023-02-21T19:27:13.070Z,2.13
2023-02-21T19:29:57.801Z,3.13
2023-02-21T19:32:40.742Z,3.28
2023-02-21T19:35:23.589Z,3.72
2023-02-21T19:38:08.190Z,4.00
2023-02-21T19:40:51.037Z,4.57
2023-02-21T19:43:33.927Z,3.80
2023-02-21T19:46:23.232Z,6.53
2023-02-21T19:49:07.028Z,7.25
2023-02-21T19:51:51.868Z,4.10
2023-02-21T19:54:34.683Z,4.50
2023-02-21T19:57:17.596Z,3.67
2023-02-21T20:00:00.431Z,3.47
2023-02-21T20:02:46.313Z,4.18
2023-02-21T20:05:29.384Z,5.78
2023-02-21T20:08:12.332Z,3.38
2023-02-21T20:10:55.118Z,2.15
2023-02-21T20:13:38.956Z,3.70
2023-02-21T20:16:22.385Z,2.43
2023-02-21T20:19:08.353Z,4.07
2023-02-21T20:21:53.366Z,3.35
2023-02-21T20:24:36.179Z,3.90
2023-02-21T20:27:19.211Z,3.38
2023-02-21T20:30:02.239Z,3.72
2023-02-21T20:32:45.776Z,3.63
2023-02-21T20:35:30.588Z,4.22
2023-02-21T20:38:13.654Z,5.50
2023-02-21T20:40:56.443Z,5.90
2023-02-21T20:43:39.214Z,7.88
2023-02-21T20:46:23.055Z,6.28
2023-02-21T20:49:06.966Z,8.07
2023-02-21T20:51:51.159Z,9.25
2023-02-21T20:54:34.130Z,6.60
2023-02-21T20:57:17.056Z,5.43
2023-02-21T20:59:59.877Z,5.35
2023-02-21T21:02:43.212Z,4.82
2023-02-21T21:05:26.364Z,7.40
2023-02-21T21:08:10.815Z,5.82
2023-02-21T21:10:53.678Z,3.70
2023-02-21T21:13:37.091Z,3.90
2023-02-21T21:16:20.262Z,3.50
2023-02-21T21:19:03.561Z,3.75
2023-02-21T21:21:46.451Z,3.67
2023-02-21T21:24:31.995Z,5.60
2023-02-21T21:27:15.458Z,3.85
2023-02-21T21:29:58.405Z,3.63
2023-02-21T21:32:41.810Z,4.90
2023-02-21T21:35:29.870Z,3.95
2023-02-21T21:38:14.528Z,3.08
2023-02-21T21:41:00.094Z,3.65
2023-02-21T21:43:43.860Z,6.18
2023-02-21T21:46:26.666Z,4.93
2023-02-21T21:49:10.605Z,5.93
2023-02-21T21:51:55.574Z,7.05
2023-02-21T21:54:40.460Z,4.85
2023-02-21T21:57:27.115Z,4.13
2023-02-21T22:00:21.465Z,5.47
2023-02-21T22:03:04.678Z,4.23
2023-02-21T22:05:50.414Z,4.38
2023-02-21T22:08:33.536Z,4.10
2023-02-21T22:11:16.588Z,4.45
2023-02-21T22:14:01.181Z,3.22
2023-02-21T22:16:45.477Z,3.78
2023-02-21T22:19:29.356Z,8.35
2023-02-21T22:22:13.701Z,9.30
2023-02-21T22:24:56.463Z,9.15
2023-02-21T22:27:39.241Z,5.07
2023-02-21T22:30:23.957Z,3.63
2023-02-21T22:35:50.397Z,2.00
2023-02-21T22:38:33.179Z,2.33
2023-02-21T22:41:17.826Z,3.38
2023-02-21T22:44:01.439Z,3.83
2023-02-21T22:46:47.258Z,2.92
2023-02-21T22:49:31.129Z,4.18
2023-02-21T22:52:14.048Z,5.07
2023-02-21T22:54:57.686Z,3.22
2023-02-21T22:57:40.544Z,3.13
2023-02-21T23:00:26.487Z,3.42
2023-02-21T23:03:13.760Z,2.38
2023-02-21T23:06:00.039Z,2.58
2023-02-21T23:08:48.680Z,2.75
2023-02-21T23:11:31.482Z,1.58
2023-02-21T23:14:15.195Z,2.05
2023-02-21T23:16:59.817Z,2.50
2023-02-21T23:19:44.036Z,3.92
2023-02-21T23:22:27.380Z,4.65
2023-02-21T23:25:19.996Z,6.88
2023-02-21T23:28:05.829Z,9.63
2023-02-21T23:30:49.680Z,6.38
2023-02-21T23:33:33.974Z,11.77
2023-02-21T23:36:22.503Z,6.25
2023-02-21T23:39:09.001Z,6.65
2023-02-21T23:41:53.581Z,5.93
2023-02-21T23:44:36.410Z,3.95
2023-02-21T23:47:19.656Z,3.25
2023-02-21T23:50:02.464Z,3.30
2023-02-21T23:52:48.381Z,3.88
2023-02-21T23:55:35.579Z,5.05
2023-02-21T23:58:20.396Z,4.40
